Time;durP1;ratioP1;P1;durP2;ratioP2;P2;SDS_P1;SDS_P2;PMS_P1;PMS_P2;Temp;Humidity;BMP_temperature;BMP_pressure;BME280_temperature;BME280_humidity;BME280_pressure;Samples;Min_cycle;Max_cycle;Signal;HPM_P1;HPM_P2
2021/03/05 00:00:28;;;;;;;;;;;;;;;20.89;51.19;101475.97;2086993;28;1431;-74
2021/03/05 00:01:55;;;;;;;;;;;;;;;20.89;51.03;101475.97;2085755;28;2825;-73
2021/03/05 00:03:20;;;;;;;;;;;;;;;20.90;51.02;101479.66;2097346;28;1852;-73
2021/03/05 00:04:46;;;;;;;;;;;;;;;20.91;51.16;101475.63;2090290;28;1669;-74
2021/03/05 00:06:12;;;;;;;;;;;;;;;20.91;50.93;101478.47;2086272;28;1694;-73
2021/03/05 00:07:38;;;;;;;;;;;;;;;20.90;51.11;101479.66;2083270;28;952;-75
2021/03/05 00:09:04;;;;;;;;;;;;;;;20.88;51.05;101482.81;2088347;28;994;-73
2021/03/05 00:10:30;;;;;;;;;;;;;;;20.89;51.04;101484.50;2089164;28;1393;-72
2021/03/05 00:11:56;;;;;;;;;;;;;;;20.89;51.04;101495.03;2086318;28;974;-73
2021/03/05 00:13:22;;;;;;;;;;;;;;;20.90;51.00;101491.88;2084488;28;962;-72
2021/03/05 00:14:48;;;;;;;;;;;;;;;20.90;50.95;101493.88;2098960;28;2054;-75
2021/03/05 00:16:14;;;;;;;;;;;;;;;20.91;50.97;101501.22;2089698;28;1886;-72
2021/03/05 00:17:40;;;;;;;;;;;;;;;20.91;50.94;101498.38;2091097;28;1037;-74
2021/03/05 00:19:06;;;;;;;;;;;;;;;20.90;51.10;101502.41;2089411;28;1718;-72
2021/03/05 00:20:32;;;;;;;;;;;;;;;20.91;51.13;101498.38;2091072;28;1345;-72
2021/03/05 00:21:58;;;;;;;;;;;;;;;20.92;51.30;101494.38;2089569;28;1867;-74
2021/03/05 00:23:25;;;;;;;;;;;;;;;20.93;51.40;101503.75;2084480;28;2085;-74
2021/03/05 00:24:51;;;;;;;;;;;;;;;20.93;51.27;101501.75;2097024;28;1920;-74
2021/03/05 00:26:17;;;;;;;;;;;;;;;20.93;51.38;101503.75;2089804;28;1869;-75
2021/03/05 00:27:43;;;;;;;;;;;;;;;20.94;51.35;101511.09;2083332;28;877;-74
2021/03/05 00:29:09;;;;;;;;;;;;;;;20.94;51.63;101514.78;2089671;28;1659;-74
2021/03/05 00:30:36;;;;;;;;;;;;;;;20.95;51.46;101509.91;2089942;28;2379;-74
2021/03/05 00:32:01;;;;;;;;;;;;;;;20.94;51.38;101522.47;2089995;28;1742;-74
2021/03/05 00:33:27;;;;;;;;;;;;;;;20.94;51.38;101513.94;2086195;28;980;-75
2021/03/05 00:34:54;;;;;;;;;;;;;;;20.94;51.58;101519.63;2092842;28;3022;-74
2021/03/05 00:36:20;;;;;;;;;;;;;;;20.94;51.49;101522.47;2088383;28;1906;-74
2021/03/05 00:37:46;;;;;;;;;;;;;;;20.95;51.55;101521.31;2086299;28;959;-74
2021/03/05 00:39:13;;;;;;;;;;;;;;;20.95;51.49;101529.84;2090632;28;1519;-75
2021/03/05 00:40:38;;;;;;;;;;;;;;;20.94;51.56;101533.88;2086919;28;873;-78
2021/03/05 00:42:04;;;;;;;;;;;;;;;20.96;51.63;101534.38;2087375;28;1459;-74
2021/03/05 00:43:30;;;;;;;;;;;;;;;20.95;51.46;101533.53;2083160;28;964;-74
2021/03/05 00:44:56;;;;;;;;;;;;;;;20.96;51.59;101537.22;2091379;28;2860;-78
2021/03/05 00:46:22;;;;;;;;;;;;;;;20.96;51.51;101535.19;2087192;28;1504;-75
2021/03/05 00:47:49;;;;;;;;;;;;;;;20.96;51.65;101537.22;2088026;28;969;-75
2021/03/05 00:49:15;;;;;;;;;;;;;;;20.96;51.70;101531.53;2087215;28;1787;-78
2021/03/05 00:50:41;;;;;;;;;;;;;;;20.96;51.72;101535.19;2083865;28;1114;-75
2021/03/05 00:52:07;;;;;;;;;;;;;;;20.97;51.72;101538.88;2088062;28;1886;-75
2021/03/05 00:53:33;;;;;;;;;;;;;;;20.96;51.81;101531.53;2094121;28;2917;-75
2021/03/05 00:54:59;;;;;;;;;;;;;;;20.97;51.59;101536.03;2087798;28;1742;-76
2021/03/05 00:56:26;;;;;;;;;;;;;;;20.97;51.67;101538.88;2090786;28;1906;-76
2021/03/05 00:57:52;;;;;;;;;;;;;;;20.96;51.55;101535.19;2085288;28;908;-74
2021/03/05 00:59:18;;;;;;;;;;;;;;;20.95;51.61;101536.38;2090379;28;1448;-75
2021/03/05 01:00:44;;;;;;;;;;;;;;;20.96;51.48;101537.22;2084238;28;1707;-74
2021/03/05 01:02:10;;;;;;;;;;;;;;;20.96;51.62;101540.06;2088060;28;1182;-75
2021/03/05 01:03:37;;;;;;;;;;;;;;;20.95;51.67;101536.38;2082262;28;680;-72
2021/03/05 01:05:14;;;;;;;;;;;;;;;20.95;51.59;101539.22;2095377;28;1885;-71
2021/03/05 01:06:39;;;;;;;;;;;;;;;20.95;51.61;101535.53;2089350;28;1714;-73
2021/03/05 01:08:05;;;;;;;;;;;;;;;20.96;51.53;101534.38;2082527;28;912;-72
2021/03/05 01:09:31;;;;;;;;;;;;;;;20.96;51.65;101537.22;2088603;28;2027;-72
2021/03/05 01:10:57;;;;;;;;;;;;;;;20.96;51.63;101540.06;2086920;28;1769;-72
2021/03/05 01:12:23;;;;;;;;;;;;;;;20.96;51.55;101537.22;2090837;28;2980;-73
2021/03/05 01:13:50;;;;;;;;;;;;;;;20.95;51.70;101536.38;2085977;28;1809;-73
2021/03/05 01:15:15;;;;;;;;;;;;;;;20.96;51.64;101540.06;2090496;28;891;-73
2021/03/05 01:16:41;;;;;;;;;;;;;;;20.96;51.55;101542.91;2090460;28;1972;-73
2021/03/05 01:18:07;;;;;;;;;;;;;;;20.94;51.49;101543.22;2088161;28;988;-73
2021/03/05 01:19:33;;;;;;;;;;;;;;;20.94;51.46;101540.38;2088459;28;1017;-72
2021/03/05 01:20:59;;;;;;;;;;;;;;;20.94;51.39;101540.38;2086248;28;1556;-73
2021/03/05 01:22:26;;;;;;;;;;;;;;;20.94;51.58;101548.91;2088981;28;930;-74
2021/03/05 01:23:52;;;;;;;;;;;;;;;20.94;51.45;101551.75;2090543;28;1053;-74
2021/03/05 01:25:18;;;;;;;;;;;;;;;20.94;51.57;101545.25;2082652;28;953;-74
2021/03/05 01:26:44;;;;;;;;;;;;;;;20.94;51.31;101548.91;2087612;28;1715;-74
2021/03/05 01:28:12;;;;;;;;;;;;;;;20.94;51.35;101545.25;2090366;28;974;-74
2021/03/05 01:29:38;;;;;;;;;;;;;;;20.94;51.32;101548.09;2082553;28;704;-74
2021/03/05 01:31:04;;;;;;;;;;;;;;;20.94;51.44;101551.75;2089522;28;1502;-75
2021/03/05 01:32:30;;;;;;;;;;;;;;;20.94;51.48;101554.59;2089647;28;1349;-75
2021/03/05 01:33:56;;;;;;;;;;;;;;;20.95;51.30;101561.13;2086907;28;954;-74
2021/03/05 01:35:33;;;;;;;;;;;;;;;20.94;51.43;101571.66;2086036;28;1003;-74
2021/03/05 01:36:59;;;;;;;;;;;;;;;20.95;51.28;101561.13;2082779;28;1967;-74
2021/03/05 01:38:25;;;;;;;;;;;;;;;20.95;51.27;101563.97;2087961;28;895;-74
2021/03/05 01:39:51;;;;;;;;;;;;;;;20.94;51.31;101568.00;2089979;28;1699;-74
2021/03/05 01:41:17;;;;;;;;;;;;;;;20.94;51.42;101565.16;2088503;28;1708;-74
2021/03/05 01:42:43;;;;;;;;;;;;;;;20.94;51.41;101565.97;2089274;28;1317;-73
2021/03/05 01:44:09;;;;;;;;;;;;;;;20.94;51.47;101570.84;2083774;28;1306;-73
2021/03/05 01:45:35;;;;;;;;;;;;;;;20.95;51.26;101569.66;2081542;28;646;-74
2021/03/05 01:47:01;;;;;;;;;;;;;;;20.95;51.41;101566.81;2087242;28;1702;-74
2021/03/05 01:48:28;;;;;;;;;;;;;;;20.95;51.08;101569.66;2086756;28;1301;-74
2021/03/05 01:49:54;;;;;;;;;;;;;;;20.95;51.30;101572.50;2089020;28;1651;-74
2021/03/05 01:51:20;;;;;;;;;;;;;;;20.95;51.47;101578.19;2087439;28;1612;-74
2021/03/05 01:52:46;;;;;;;;;;;;;;;20.95;51.54;101572.50;2084612;28;1061;-74
2021/03/05 01:54:12;;;;;;;;;;;;;;;20.94;51.51;101577.34;2085233;28;982;-75
2021/03/05 01:55:38;;;;;;;;;;;;;;;20.94;51.44;101574.53;2083583;28;967;-74
2021/03/05 01:57:04;;;;;;;;;;;;;;;20.95;51.58;101572.50;2084569;28;1967;-74
2021/03/05 01:58:30;;;;;;;;;;;;;;;20.95;51.68;101576.22;2090741;28;1017;-74
2021/03/05 01:59:56;;;;;;;;;;;;;;;20.96;51.63;101577.88;2087979;28;2753;-74
2021/03/05 02:01:22;;;;;;;;;;;;;;;20.97;51.81;101567.31;2086343;28;1712;-78
2021/03/05 02:02:49;;;;;;;;;;;;;;;20.96;51.71;101579.88;2086056;28;1770;-75
2021/03/05 02:04:15;;;;;;;;;;;;;;;20.95;51.58;101576.22;2089826;28;1329;-74
2021/03/05 02:05:59;;;;;;;;;;;;;;;20.96;51.52;101582.72;2088541;28;1051;-74
2021/03/05 02:07:25;;;;;;;;;;;;;;;20.96;51.47;101579.88;2084809;28;1734;-74
2021/03/05 02:08:51;;;;;;;;;;;;;;;20.95;51.53;101578.19;2082800;28;1470;-74
2021/03/05 02:10:17;;;;;;;;;;;;;;;20.95;51.49;101586.72;2082192;28;2161;-73
2021/03/05 02:11:43;;;;;;;;;;;;;;;20.96;51.48;101585.56;2083479;28;2765;-74
2021/03/05 02:13:09;;;;;;;;;;;;;;;20.96;51.60;101586.41;2095252;28;1812;-74
2021/03/05 02:14:35;;;;;;;;;;;;;;;20.96;51.59;101585.56;2090031;28;1907;-74
2021/03/05 02:16:01;;;;;;;;;;;;;;;20.95;51.46;101584.75;2082309;28;614;-74
2021/03/05 02:17:27;;;;;;;;;;;;;;;20.95;51.64;101589.56;2087966;28;1710;-75
2021/03/05 02:18:53;;;;;;;;;;;;;;;20.95;51.52;101590.44;2087441;28;982;-73
2021/03/05 02:20:19;;;;;;;;;;;;;;;20.96;51.47;101596.94;2090436;28;993;-73
2021/03/05 02:21:45;;;;;;;;;;;;;;;20.96;51.41;101594.09;2084503;28;896;-73
2021/03/05 02:23:11;;;;;;;;;;;;;;;20.95;51.52;101593.28;2090568;28;1910;-73
2021/03/05 02:24:37;;;;;;;;;;;;;;;20.95;51.47;101604.66;2089658;28;1641;-75
2021/03/05 02:26:03;;;;;;;;;;;;;;;20.95;51.39;101593.28;2081918;28;660;-74
2021/03/05 02:27:29;;;;;;;;;;;;;;;20.95;51.34;101604.66;2088032;28;1703;-73
2021/03/05 02:28:55;;;;;;;;;;;;;;;20.96;51.58;101602.66;2087923;28;1017;-74
2021/03/05 02:30:21;;;;;;;;;;;;;;;20.95;51.59;101606.63;2084703;28;2275;-72
2021/03/05 02:31:47;;;;;;;;;;;;;;;20.96;51.40;101608.34;2092846;28;577;-74
2021/03/05 02:33:14;;;;;;;;;;;;;;;20.95;51.57;101607.50;2081964;28;853;-72
2021/03/05 02:34:40;;;;;;;;;;;;;;;20.95;51.52;101607.50;2088146;28;1773;-72
2021/03/05 02:36:22;;;;;;;;;;;;;;;20.97;51.62;101612.84;2085408;28;1694;-73
2021/03/05 02:37:48;;;;;;;;;;;;;;;20.96;51.53;101611.19;2088294;28;1574;-74
2021/03/05 02:39:14;;;;;;;;;;;;;;;20.96;51.51;101616.88;2086992;28;990;-71
2021/03/05 02:40:40;;;;;;;;;;;;;;;20.96;51.61;101620.53;2086819;28;1783;-71
2021/03/05 02:42:06;;;;;;;;;;;;;;;20.95;51.50;101616.03;2089992;28;990;-72
2021/03/05 02:43:32;;;;;;;;;;;;;;;20.96;51.48;101617.69;2085206;28;940;-74
2021/03/05 02:44:58;;;;;;;;;;;;;;;20.96;51.54;101623.38;2085955;28;1524;-72
2021/03/05 02:46:24;;;;;;;;;;;;;;;20.96;51.63;101623.38;2086207;28;1714;-72
2021/03/05 02:47:50;;;;;;;;;;;;;;;20.95;51.69;101624.56;2086300;28;1120;-72
2021/03/05 02:49:16;;;;;;;;;;;;;;;20.96;51.52;101631.91;2089528;28;978;-73
2021/03/05 02:50:42;;;;;;;;;;;;;;;20.96;51.54;101637.59;2088190;28;908;-72
2021/03/05 02:52:08;;;;;;;;;;;;;;;20.95;51.48;101641.63;2081791;28;613;-73
2021/03/05 02:53:34;;;;;;;;;;;;;;;20.95;51.60;101641.63;2088556;28;1743;-72
2021/03/05 02:55:00;;;;;;;;;;;;;;;20.95;51.52;101644.47;2089453;28;1622;-73
2021/03/05 02:56:26;;;;;;;;;;;;;;;20.95;51.53;101646.47;2086596;28;1756;-72
2021/03/05 02:57:52;;;;;;;;;;;;;;;20.96;51.38;101645.31;2087200;28;959;-73
2021/03/05 02:59:18;;;;;;;;;;;;;;;20.96;51.43;101648.16;2091441;28;1773;-73
2021/03/05 03:00:44;;;;;;;;;;;;;;;20.96;51.42;101651.84;2088705;28;1699;-72
2021/03/05 03:02:10;;;;;;;;;;;;;;;20.96;51.56;101645.31;2088684;28;1584;-72
2021/03/05 03:03:36;;;;;;;;;;;;;;;20.96;51.48;101654.69;2083231;28;1623;-72
2021/03/05 03:05:02;;;;;;;;;;;;;;;20.97;51.50;101655.50;2083390;28;633;-77
2021/03/05 03:06:44;;;;;;;;;;;;;;;20.96;51.30;101660.38;2091608;28;661;-77
2021/03/05 03:08:10;;;;;;;;;;;;;;;20.96;51.44;101660.38;2083296;28;929;-74
2021/03/05 03:09:36;;;;;;;;;;;;;;;20.98;51.44;101665.72;2090334;28;1925;-74
2021/03/05 03:11:02;;;;;;;;;;;;;;;20.97;51.32;101661.19;2086269;28;982;-74
2021/03/05 03:12:28;;;;;;;;;;;;;;;20.97;51.29;101662.03;2090047;28;915;-74
2021/03/05 03:13:54;;;;;;;;;;;;;;;20.98;51.41;101665.72;2091312;28;1691;-75
2021/03/05 03:15:20;;;;;;;;;;;;;;;20.97;51.40;101664.03;2083417;28;919;-75
2021/03/05 03:16:46;;;;;;;;;;;;;;;20.97;51.18;101655.50;2090184;28;1963;-74
2021/03/05 03:18:12;;;;;;;;;;;;;;;20.96;51.20;101668.91;2083467;28;881;-74
2021/03/05 03:19:38;;;;;;;;;;;;;;;20.95;51.26;101664.41;2090486;28;1573;-75
2021/03/05 03:21:04;;;;;;;;;;;;;;;20.96;51.42;101673.75;2091183;28;1017;-75
2021/03/05 03:22:30;;;;;;;;;;;;;;;20.97;51.51;101681.13;2091075;28;1026;-75
2021/03/05 03:23:56;;;;;;;;;;;;;;;20.97;51.40;101672.59;2087258;28;1873;-75
2021/03/05 03:25:22;;;;;;;;;;;;;;;20.97;51.40;101678.28;2086044;28;921;-75
2021/03/05 03:26:48;;;;;;;;;;;;;;;20.97;51.47;101675.44;2085384;28;1773;-74
2021/03/05 03:28:14;;;;;;;;;;;;;;;20.97;51.38;101675.44;2088922;28;889;-75
2021/03/05 03:29:41;;;;;;;;;;;;;;;20.97;51.54;101678.28;2090574;28;1525;-74
2021/03/05 03:31:07;;;;;;;;;;;;;;;20.96;51.40;101685.13;2083302;28;621;-74
2021/03/05 03:32:33;;;;;;;;;;;;;;;20.97;51.39;101683.97;2083187;28;653;-74
2021/03/05 03:33:59;;;;;;;;;;;;;;;20.97;51.46;101692.50;2090648;28;967;-74
2021/03/05 03:35:25;;;;;;;;;;;;;;;20.96;51.45;101699.38;2083529;28;939;-74
2021/03/05 03:37:08;;;;;;;;;;;;;;;20.96;51.33;101702.22;2084170;28;1967;-74
2021/03/05 03:38:34;;;;;;;;;;;;;;;20.96;51.59;101696.53;2083410;28;940;-74
2021/03/05 03:40:00;;;;;;;;;;;;;;;20.96;51.56;101707.91;2090025;28;1742;-74
2021/03/05 03:41:26;;;;;;;;;;;;;;;20.96;51.61;101700.19;2090622;28;970;-75
2021/03/05 03:42:52;;;;;;;;;;;;;;;20.97;51.62;101706.72;2089128;28;979;-74
2021/03/05 03:44:18;;;;;;;;;;;;;;;20.96;51.58;101708.72;2087511;28;1686;-74
2021/03/05 03:45:44;;;;;;;;;;;;;;;20.96;51.59;101711.56;2086014;28;898;-73
2021/03/05 03:47:11;;;;;;;;;;;;;;;20.97;51.79;101712.41;2090633;28;1675;-74
2021/03/05 03:48:37;;;;;;;;;;;;;;;20.97;51.65;101718.09;2090276;28;1422;-74
2021/03/05 03:50:03;;;;;;;;;;;;;;;20.97;51.61;101718.94;2090857;28;1614;-76
2021/03/05 03:51:29;;;;;;;;;;;;;;;20.97;51.76;101718.09;2082910;28;644;-77
2021/03/05 03:52:55;;;;;;;;;;;;;;;20.98;51.58;101716.91;2088592;28;1882;-76
2021/03/05 03:54:21;;;;;;;;;;;;;;;20.97;51.64;101718.94;2090861;28;1018;-77
2021/03/05 03:55:48;;;;;;;;;;;;;;;20.97;51.81;101723.78;2091041;28;1041;-77
2021/03/05 03:57:15;;;;;;;;;;;;;;;20.97;51.68;101730.31;2087051;28;1969;-77
2021/03/05 03:58:41;;;;;;;;;;;;;;;20.97;51.79;101736.00;2088116;28;1357;-78
2021/03/05 04:00:07;;;;;;;;;;;;;;;20.98;51.81;101733.97;2085826;28;1640;-78
2021/03/05 04:01:33;;;;;;;;;;;;;;;20.98;51.75;101725.44;2083743;28;1045;-77
2021/03/05 04:02:59;;;;;;;;;;;;;;;20.98;51.64;101733.97;2089510;28;1711;-77
2021/03/05 04:04:26;;;;;;;;;;;;;;;20.99;51.70;101741.38;2089100;28;1090;-78
2021/03/05 04:05:52;;;;;;;;;;;;;;;20.99;51.75;101745.06;2091020;28;1005;-75
2021/03/05 04:07:31;;;;;;;;;;;;;;;20.98;51.72;101743.38;2086848;28;1707;-76
2021/03/05 04:08:57;;;;;;;;;;;;;;;20.98;51.60;101737.69;2089950;28;1353;-77
2021/03/05 04:10:23;;;;;;;;;;;;;;;20.99;51.75;101736.50;2088168;28;2202;-76
2021/03/05 04:11:50;;;;;;;;;;;;;;;20.99;51.67;101741.38;2091220;28;1017;-75
2021/03/05 04:13:16;;;;;;;;;;;;;;;20.99;51.75;101747.06;2082737;28;662;-75
2021/03/05 04:14:42;;;;;;;;;;;;;;;21.00;51.95;101741.03;2082770;28;628;-81
2021/03/05 04:16:08;;;;;;;;;;;;;;;20.98;51.82;101754.75;2082869;28;641;-81
2021/03/05 04:17:34;;;;;;;;;;;;;;;20.99;52.23;101747.06;2083572;28;1914;-78
2021/03/05 04:19:00;;;;;;;;;;;;;;;20.97;51.88;101753.06;2088265;28;1671;-78
2021/03/05 04:20:26;;;;;;;;;;;;;;;20.97;51.91;101760.78;2088191;28;1666;-77
2021/03/05 04:21:52;;;;;;;;;;;;;;;20.97;51.95;101758.75;2084357;28;978;-78
2021/03/05 04:23:18;;;;;;;;;;;;;;;20.96;51.73;101757.09;2082582;28;1370;-79
2021/03/05 04:24:44;;;;;;;;;;;;;;;20.98;51.78;101762.44;2090779;28;933;-78
2021/03/05 04:26:10;;;;;;;;;;;;;;;20.97;51.75;101755.09;2082958;28;601;-79
2021/03/05 04:27:36;;;;;;;;;;;;;;;20.97;51.68;101760.78;2086633;28;1034;-79
2021/03/05 04:29:02;;;;;;;;;;;;;;;20.97;51.71;101764.44;2090539;28;1559;-78
2021/03/05 04:30:28;;;;;;;;;;;;;;;20.96;51.70;101770.47;2089024;28;2193;-78
2021/03/05 04:31:54;;;;;;;;;;;;;;;20.96;51.74;101776.19;2086725;28;1082;-78
2021/03/05 04:33:20;;;;;;;;;;;;;;;20.96;51.71;101774.16;2085288;28;986;-78
2021/03/05 04:34:46;;;;;;;;;;;;;;;20.96;51.62;101773.34;2084139;28;973;-78
2021/03/05 04:36:12;;;;;;;;;;;;;;;20.95;51.54;101778.19;2090957;28;641;-78
2021/03/05 04:37:56;;;;;;;;;;;;;;;20.95;51.64;101781.03;2083249;28;869;-78
2021/03/05 04:39:22;;;;;;;;;;;;;;;20.94;51.49;101773.66;2082824;28;1847;-78
2021/03/05 04:40:48;;;;;;;;;;;;;;;20.95;51.53;101783.88;2087372;28;1338;-78
2021/03/05 04:42:14;;;;;;;;;;;;;;;20.95;51.54;101788.69;2089675;28;1828;-77
2021/03/05 04:43:40;;;;;;;;;;;;;;;20.94;51.54;101781.34;2090754;28;1028;-77
2021/03/05 04:45:06;;;;;;;;;;;;;;;20.94;51.44;101787.03;2082882;28;948;-79
2021/03/05 04:46:32;;;;;;;;;;;;;;;20.93;51.59;101783.34;2083720;28;1694;-78
2021/03/05 04:47:58;;;;;;;;;;;;;;;20.92;51.36;101784.50;2087538;28;1120;-78
2021/03/05 04:49:24;;;;;;;;;;;;;;;20.94;51.29;101787.03;2090263;28;970;-74
2021/03/05 04:50:51;;;;;;;;;;;;;;;20.94;51.31;101793.56;2088704;28;1321;-73
2021/03/05 04:52:17;;;;;;;;;;;;;;;20.93;51.37;101789.03;2089388;28;1737;-73
2021/03/05 04:53:43;;;;;;;;;;;;;;;20.93;51.37;101793.91;2085835;28;994;-74
2021/03/05 04:55:09;;;;;;;;;;;;;;;20.93;51.37;101800.44;2088983;28;867;-74
2021/03/05 04:56:35;;;;;;;;;;;;;;;20.93;51.21;101802.44;2083920;28;1732;-77
2021/03/05 04:58:01;;;;;;;;;;;;;;;20.94;51.28;101804.09;2082535;28;696;-75
2021/03/05 04:59:27;;;;;;;;;;;;;;;20.93;51.27;101808.13;2082467;28;578;-75
2021/03/05 05:00:53;;;;;;;;;;;;;;;20.93;51.32;101810.97;2083975;28;1785;-75
2021/03/05 05:02:19;;;;;;;;;;;;;;;20.92;51.31;101807.25;2088575;28;1673;-76
2021/03/05 05:03:45;;;;;;;;;;;;;;;20.91;51.22;101806.44;2090632;28;605;-76
2021/03/05 05:05:11;;;;;;;;;;;;;;;20.93;51.07;101810.97;2082091;28;890;-75
2021/03/05 05:06:37;;;;;;;;;;;;;;;20.91;51.21;101812.13;2089771;28;1636;-75
2021/03/05 05:08:16;;;;;;;;;;;;;;;20.91;51.12;101814.13;2082282;28;609;-75
2021/03/05 05:09:42;;;;;;;;;;;;;;;20.91;51.27;101820.66;2088606;28;1998;-75
2021/03/05 05:11:08;;;;;;;;;;;;;;;20.91;51.29;101820.66;2088682;28;1089;-75
2021/03/05 05:12:34;;;;;;;;;;;;;;;20.91;51.20;101823.50;2087150;28;1639;-75
2021/03/05 05:14:00;;;;;;;;;;;;;;;20.91;51.08;101823.50;2085539;28;1757;-74
2021/03/05 05:15:27;;;;;;;;;;;;;;;20.91;51.06;101826.34;2090192;28;994;-74
2021/03/05 05:16:53;;;;;;;;;;;;;;;20.92;51.16;101827.19;2083096;28;1910;-74
2021/03/05 05:18:19;;;;;;;;;;;;;;;20.91;51.12;101829.19;2082480;28;573;-74
2021/03/05 05:19:45;;;;;;;;;;;;;;;20.91;51.08;101836.88;2088906;28;1690;-74
2021/03/05 05:21:11;;;;;;;;;;;;;;;20.91;51.08;101837.72;2082290;28;593;-75
2021/03/05 05:22:38;;;;;;;;;;;;;;;20.92;51.10;101841.41;2088518;28;1140;-75
2021/03/05 05:24:03;;;;;;;;;;;;;;;20.91;51.09;101837.72;2087983;28;1788;-75
2021/03/05 05:25:29;;;;;;;;;;;;;;;20.92;51.03;101838.56;2090499;28;588;-74
2021/03/05 05:26:55;;;;;;;;;;;;;;;20.92;51.07;101838.56;2090594;28;582;-74
2021/03/05 05:28:21;;;;;;;;;;;;;;;20.91;51.01;101840.56;2088161;28;738;-75
2021/03/05 05:29:47;;;;;;;;;;;;;;;20.92;50.96;101841.41;2089237;28;2213;-74
2021/03/05 05:31:13;;;;;;;;;;;;;;;20.91;50.99;101834.03;2083651;28;2037;-73
2021/03/05 05:32:39;;;;;;;;;;;;;;;20.91;51.09;101845.41;2087500;28;1382;-73
2021/03/05 05:34:05;;;;;;;;;;;;;;;20.90;50.91;101844.59;2089904;28;1460;-73
2021/03/05 05:35:31;;;;;;;;;;;;;;;20.91;50.87;101846.25;2084566;28;943;-73
2021/03/05 05:36:57;;;;;;;;;;;;;;;20.91;50.82;101845.41;2086325;28;1906;-72
2021/03/05 05:38:37;;;;;;;;;;;;;;;20.90;50.93;101847.44;2089958;28;1670;-74
2021/03/05 05:40:03;;;;;;;;;;;;;;;20.90;50.90;101855.97;2083905;28;1294;-74
2021/03/05 05:41:29;;;;;;;;;;;;;;;20.89;50.99;101847.75;2086411;28;1428;-74
2021/03/05 05:42:55;;;;;;;;;;;;;;;20.90;50.79;101853.13;2088502;28;1659;-74
2021/03/05 05:44:21;;;;;;;;;;;;;;;20.90;50.90;101850.28;2085157;28;1550;-74
2021/03/05 05:45:47;;;;;;;;;;;;;;;20.89;50.89;101848.59;2082530;28;598;-74
2021/03/05 05:47:14;;;;;;;;;;;;;;;20.89;51.02;101859.97;2089533;28;1703;-74
2021/03/05 05:48:40;;;;;;;;;;;;;;;20.89;50.87;101859.13;2088550;28;1632;-74
2021/03/05 05:50:06;;;;;;;;;;;;;;;20.90;51.00;101866.50;2090219;28;985;-74
2021/03/05 05:51:32;;;;;;;;;;;;;;;20.89;50.96;101859.97;2090845;28;997;-74
2021/03/05 05:52:58;;;;;;;;;;;;;;;20.89;50.73;101870.50;2088154;28;1689;-74
2021/03/05 05:54:24;;;;;;;;;;;;;;;20.89;50.91;101864.81;2089581;28;1689;-74
2021/03/05 05:55:50;;;;;;;;;;;;;;;20.88;50.73;101869.66;2090773;28;618;-75
2021/03/05 05:57:16;;;;;;;;;;;;;;;20.88;50.96;101861.13;2085884;28;1906;-75
2021/03/05 05:58:42;;;;;;;;;;;;;;;20.88;50.84;101871.69;2082406;28;625;-75
2021/03/05 06:00:09;;;;;;;;;;;;;;;20.88;50.82;101866.00;2090160;28;1748;-75
2021/03/05 06:01:35;;;;;;;;;;;;;;;20.87;50.94;101868.00;2090582;28;962;-75
2021/03/05 06:03:01;;;;;;;;;;;;;;;20.86;50.84;101874.00;2089243;28;1811;-76
2021/03/05 06:04:27;;;;;;;;;;;;;;;20.87;50.85;101870.84;2085582;28;1668;-75
2021/03/05 06:05:54;;;;;;;;;;;;;;;20.87;50.83;101876.53;2084657;28;954;-75
2021/03/05 06:07:20;;;;;;;;;;;;;;;20.87;50.64;101878.56;2089319;28;948;-75
2021/03/05 06:09:02;;;;;;;;;;;;;;;20.86;50.66;101879.69;2090312;28;922;-75
2021/03/05 06:10:28;;;;;;;;;;;;;;;20.87;50.66;101884.25;2085736;28;1696;-74
2021/03/05 06:11:55;;;;;;;;;;;;;;;20.86;50.64;101889.06;2088673;28;1592;-74
2021/03/05 06:13:21;;;;;;;;;;;;;;;20.87;50.61;101885.06;2086190;28;1874;-73
2021/03/05 06:14:47;;;;;;;;;;;;;;;20.88;50.63;101883.91;2086829;28;1764;-75
2021/03/05 06:16:13;;;;;;;;;;;;;;;20.87;50.77;101896.44;2083919;28;1842;-76
2021/03/05 06:17:39;;;;;;;;;;;;;;;20.87;50.53;101890.75;2088076;28;1906;-72
2021/03/05 06:19:05;;;;;;;;;;;;;;;20.87;50.80;101896.44;2090048;28;1492;-73
2021/03/05 06:20:31;;;;;;;;;;;;;;;20.86;50.58;101894.75;2084532;28;1598;-73
2021/03/05 06:21:57;;;;;;;;;;;;;;;20.87;50.62;101890.75;2082292;28;676;-72
2021/03/05 06:23:23;;;;;;;;;;;;;;;20.87;50.50;101901.31;2089314;28;1676;-71
2021/03/05 06:24:50;;;;;;;;;;;;;;;20.87;50.56;101905.00;2087979;28;1691;-71
2021/03/05 06:26:16;;;;;;;;;;;;;;;20.88;50.52;101915.19;2087246;28;1038;-72
2021/03/05 06:27:42;;;;;;;;;;;;;;;20.87;50.66;101902.13;2085915;28;982;-72
2021/03/05 06:29:08;;;;;;;;;;;;;;;20.88;50.63;101918.03;2088141;28;1690;-72
2021/03/05 06:30:34;;;;;;;;;;;;;;;20.87;50.53;101924.91;2089240;28;2527;-75
2021/03/05 06:32:00;;;;;;;;;;;;;;;20.88;50.48;101923.72;2086655;28;1834;-74
2021/03/05 06:33:27;;;;;;;;;;;;;;;20.88;50.60;101926.56;2089543;28;1735;-74
2021/03/05 06:34:53;;;;;;;;;;;;;;;20.87;50.69;101924.91;2090377;28;1693;-74
2021/03/05 06:36:19;;;;;;;;;;;;;;;20.88;50.64;101928.56;2087689;28;1682;-73
2021/03/05 06:37:45;;;;;;;;;;;;;;;20.86;50.45;101926.03;2091762;28;1906;-73
2021/03/05 06:39:23;;;;;;;;;;;;;;;20.87;50.46;101936.28;2086414;28;894;-72
2021/03/05 06:40:50;;;;;;;;;;;;;;;20.87;50.56;101935.44;2091795;28;998;-72
2021/03/05 06:42:16;;;;;;;;;;;;;;;20.87;50.59;101943.97;2085961;28;1767;-73
2021/03/05 06:43:42;;;;;;;;;;;;;;;20.87;50.64;101941.13;2091021;28;1750;-73
2021/03/05 06:45:08;;;;;;;;;;;;;;;20.86;50.45;101945.94;2089877;28;1855;-73
2021/03/05 06:46:34;;;;;;;;;;;;;;;20.86;50.52;101945.94;2085173;28;1742;-73
2021/03/05 06:48:00;;;;;;;;;;;;;;;20.87;50.50;101943.97;2090468;28;1736;-72
2021/03/05 06:49:27;;;;;;;;;;;;;;;20.86;50.64;101945.94;2091265;28;998;-72
2021/03/05 06:50:53;;;;;;;;;;;;;;;20.87;50.53;101947.66;2090344;28;2193;-77
2021/03/05 06:52:19;;;;;;;;;;;;;;;20.86;50.59;101937.41;2084422;28;1615;-75
2021/03/05 06:53:45;;;;;;;;;;;;;;;20.88;50.61;101948.50;2087082;28;1668;-73
2021/03/05 06:55:11;;;;;;;;;;;;;;;20.87;50.86;101946.81;2088710;28;1723;-73
2021/03/05 06:56:37;;;;;;;;;;;;;;;20.88;50.44;101942.78;2084560;28;1763;-74
2021/03/05 06:58:03;;;;;;;;;;;;;;;20.87;50.68;101952.50;2084086;28;1946;-72
2021/03/05 06:59:29;;;;;;;;;;;;;;;20.87;50.62;101950.50;2083626;28;1692;-73
2021/03/05 07:00:55;;;;;;;;;;;;;;;20.88;50.64;101951.34;2091276;28;1684;-73
2021/03/05 07:02:21;;;;;;;;;;;;;;;20.88;50.78;101954.19;2089168;28;1938;-72
2021/03/05 07:03:47;;;;;;;;;;;;;;;20.88;50.89;101957.03;2087451;28;990;-73
2021/03/05 07:05:13;;;;;;;;;;;;;;;20.88;51.00;101971.25;2086413;28;1018;-73
2021/03/05 07:06:39;;;;;;;;;;;;;;;20.87;51.08;101961.88;2089568;28;1809;-75
2021/03/05 07:08:05;;;;;;;;;;;;;;;20.89;51.06;101968.06;2089958;28;1771;-74
2021/03/05 07:09:47;;;;;;;;;;;;;;;20.89;51.00;101967.22;2085664;28;2136;-73
2021/03/05 07:11:13;;;;;;;;;;;;;;;20.89;51.07;101970.91;2090947;28;1674;-73
2021/03/05 07:12:39;;;;;;;;;;;;;;;20.90;51.32;101983.16;2083942;28;1700;-72
2021/03/05 07:14:05;;;;;;;;;;;;;;;20.90;51.47;101975.44;2089249;28;1857;-73
2021/03/05 07:15:31;;;;;;;;;;;;;;;20.90;51.41;101975.44;2086552;28;1755;-73
2021/03/05 07:16:57;;;;;;;;;;;;;;;20.90;51.27;101986.81;2091091;28;1418;-75
2021/03/05 07:18:23;;;;;;;;;;;;;;;20.90;51.24;101997.38;2091775;28;894;-74
2021/03/05 07:19:50;;;;;;;;;;;;;;;20.89;51.03;101995.66;2088906;28;1946;-74
2021/03/05 07:21:16;;;;;;;;;;;;;;;20.89;51.42;101999.34;2089145;28;1788;-73
2021/03/05 07:22:42;;;;;;;;;;;;;;;20.89;51.28;101996.50;2089674;28;1878;-74
2021/03/05 07:24:08;;;;;;;;;;;;;;;20.89;51.30;101993.66;2090723;28;1361;-73
2021/03/05 07:25:34;;;;;;;;;;;;;;;20.89;51.25;101996.50;2090333;28;1895;-73
2021/03/05 07:27:01;;;;;;;;;;;;;;;20.89;51.36;101992.81;2089487;28;1777;-73
2021/03/05 07:28:27;;;;;;;;;;;;;;;20.89;51.18;101995.66;2084621;28;1955;-73
2021/03/05 07:29:53;;;;;;;;;;;;;;;20.88;51.16;101989.16;2087520;28;2263;-76
2021/03/05 07:31:19;;;;;;;;;;;;;;;20.88;51.31;101986.31;2090819;28;1523;-76
2021/03/05 07:32:47;;;;;;;;;;;;;;;20.89;51.24;101995.66;2081174;28;1374;-74